createdAt,value
2022-10-02T00:02:29.238Z,14.90
2022-10-02T00:05:17.478Z,18.27
2022-10-02T00:08:10.129Z,15.60
2022-10-02T00:10:42.103Z,16.35
2022-10-02T00:13:15.658Z,20.08
2022-10-02T00:15:44.320Z,16.15
2022-10-02T00:18:16.222Z,20.23
2022-10-02T00:21:08.616Z,16.30
2022-10-02T00:23:40.190Z,14.60
2022-10-02T00:26:40.414Z,17.00
2022-10-02T00:29:26.996Z,15.10
2022-10-02T00:32:19.600Z,15.35
2022-10-02T00:35:19.514Z,13.38
2022-10-02T00:38:06.271Z,12.82
2022-10-02T00:41:12.404Z,11.38
2022-10-02T00:43:43.069Z,14.30
2022-10-02T00:46:56.531Z,12.55
2022-10-02T00:49:33.873Z,12.30
2022-10-02T00:52:20.513Z,13.93
2022-10-02T00:55:04.200Z,15.93
2022-10-02T00:57:57.268Z,12.80
2022-10-02T01:00:26.631Z,16.23
2022-10-02T01:03:42.295Z,15.60
2022-10-02T01:06:11.669Z,16.08
2022-10-02T01:08:41.427Z,13.35
2022-10-02T01:11:10.067Z,14.45
2022-10-02T01:13:38.680Z,14.45
2022-10-02T01:16:12.815Z,13.90
2022-10-02T01:18:42.220Z,13.65
2022-10-02T01:21:26.994Z,12.63
2022-10-02T01:24:30.783Z,13.75
2022-10-02T01:26:59.305Z,13.73
2022-10-02T01:29:28.474Z,10.15
2022-10-02T01:31:57.536Z,13.20
2022-10-02T01:34:27.181Z,11.88
2022-10-02T01:36:56.391Z,10.05
2022-10-02T01:39:24.709Z,11.80
2022-10-02T01:41:55.906Z,12.80
2022-10-02T01:44:25.487Z,13.02
2022-10-02T01:47:12.392Z,13.38
2022-10-02T01:49:52.434Z,11.48
2022-10-02T01:52:23.885Z,12.70
2022-10-02T01:55:01.847Z,14.35
2022-10-02T01:57:49.402Z,12.45
2022-10-02T02:00:21.168Z,14.80
2022-10-02T02:02:58.885Z,13.27
2022-10-02T02:05:40.606Z,16.63
2022-10-02T02:08:11.802Z,16.95
2022-10-02T02:10:58.372Z,15.45
2022-10-02T02:13:43.602Z,13.93
2022-10-02T02:16:26.624Z,14.50
2022-10-02T02:19:11.427Z,16.95
2022-10-02T02:21:44.703Z,14.13
2022-10-02T02:24:33.110Z,13.35
2022-10-02T02:27:04.506Z,12.27
2022-10-02T02:29:37.454Z,16.25
2022-10-02T02:32:10.162Z,11.45
2022-10-02T02:34:52.929Z,10.60
2022-10-02T02:37:24.669Z,13.13
2022-10-02T02:39:55.252Z,11.25
2022-10-02T02:42:29.421Z,9.35
2022-10-02T02:45:16.098Z,14.63
2022-10-02T02:47:54.627Z,11.07
2022-10-02T02:50:26.835Z,13.02
2022-10-02T02:52:59.549Z,11.68
2022-10-02T02:55:45.532Z,9.65
2022-10-02T02:58:17.231Z,13.52
2022-10-02T03:00:46.402Z,11.57
2022-10-02T03:03:15.264Z,9.80
2022-10-02T03:05:49.928Z,13.30
2022-10-02T03:08:24.944Z,11.05
2022-10-02T03:10:56.398Z,12.70
2022-10-02T03:13:36.649Z,10.15
2022-10-02T03:16:17.016Z,9.35
2022-10-02T03:18:59.013Z,10.30
2022-10-02T03:21:35.593Z,9.82
2022-10-02T03:24:12.155Z,10.88
2022-10-02T03:27:02.987Z,13.30
2022-10-02T03:29:44.443Z,8.15
2022-10-02T03:32:15.489Z,11.20
2022-10-02T03:34:44.119Z,9.20
2022-10-02T03:37:13.270Z,9.70
2022-10-02T03:39:45.690Z,13.30
2022-10-02T03:42:15.437Z,13.35
2022-10-02T03:44:44.458Z,13.82
2022-10-02T03:47:12.791Z,12.80
2022-10-02T03:49:41.596Z,11.85
2022-10-02T03:52:17.096Z,9.40
2022-10-02T03:54:45.763Z,10.18
2022-10-02T03:57:20.065Z,7.60
2022-10-02T03:59:51.451Z,14.15
2022-10-02T04:02:43.620Z,13.70
2022-10-02T04:05:27.182Z,10.98
2022-10-02T04:07:59.970Z,16.17
2022-10-02T04:10:45.275Z,40.47
2022-10-02T04:13:22.877Z,17.63
2022-10-02T04:16:10.886Z,15.35
2022-10-02T04:19:01.704Z,10.73
2022-10-02T04:21:38.710Z,15.20
2022-10-02T04:24:12.718Z,8.07
2022-10-02T04:26:47.993Z,9.30
2022-10-02T04:29:25.133Z,9.10
2022-10-02T04:32:08.102Z,12.55
2022-10-02T04:34:36.732Z,11.43
2022-10-02T04:37:04.927Z,11.57
2022-10-02T04:39:48.042Z,9.23
2022-10-02T04:42:33.205Z,11.23
2022-10-02T04:45:26.758Z,12.20
2022-10-02T04:48:27.049Z,9.15
2022-10-02T04:51:23.021Z,7.65
2022-10-02T04:53:59.821Z,12.57
2022-10-02T04:56:49.601Z,6.93
2022-10-02T04:59:32.575Z,8.50
2022-10-02T05:02:19.345Z,8.98
2022-10-02T05:05:10.697Z,9.77
2022-10-02T05:07:41.919Z,11.18
2022-10-02T05:10:37.070Z,12.15
2022-10-02T05:13:26.061Z,7.45
2022-10-02T05:16:24.282Z,6.72
2022-10-02T05:19:13.070Z,7.00
2022-10-02T05:22:03.941Z,9.35
2022-10-02T05:24:35.146Z,7.82
2022-10-02T05:27:27.837Z,11.90
2022-10-02T05:30:05.637Z,13.05
2022-10-02T05:33:02.442Z,7.63
2022-10-02T05:35:46.011Z,6.90
2022-10-02T05:38:32.794Z,5.85
2022-10-02T05:41:15.347Z,9.02
2022-10-02T05:44:06.475Z,7.57
2022-10-02T05:46:44.833Z,8.10
2022-10-02T05:49:20.711Z,6.28
2022-10-02T05:51:53.832Z,5.75
2022-10-02T05:57:00.750Z,6.50
2022-10-02T05:59:42.120Z,5.93
2022-10-02T06:02:52.133Z,6.93
2022-10-02T06:06:02.939Z,5.45
2022-10-02T06:09:08.869Z,6.47
2022-10-02T06:11:50.518Z,5.57
2022-10-02T06:14:41.742Z,6.63
2022-10-02T06:17:24.676Z,5.72
2022-10-02T06:20:03.784Z,7.40
2022-10-02T06:22:40.602Z,6.10
2022-10-02T06:25:23.335Z,3.30
2022-10-02T06:28:08.128Z,5.95
2022-10-02T06:30:43.431Z,5.18
2022-10-02T06:33:25.388Z,7.05
2022-10-02T06:35:59.982Z,5.53
2022-10-02T06:38:39.972Z,5.22
2022-10-02T06:41:13.820Z,5.60
2022-10-02T06:44:02.743Z,4.65
2022-10-02T06:46:37.837Z,6.65
2022-10-02T06:49:40.914Z,4.15
2022-10-02T06:52:51.423Z,4.53
2022-10-02T06:55:41.158Z,6.53
2022-10-02T06:58:30.672Z,5.30
2022-10-02T07:01:04.610Z,6.88
2022-10-02T07:03:41.458Z,5.97
2022-10-02T07:06:30.404Z,6.55
2022-10-02T07:09:26.704Z,4.60
2022-10-02T07:12:04.384Z,5.75
2022-10-02T07:14:47.786Z,3.88
2022-10-02T07:17:41.605Z,5.57
2022-10-02T07:20:17.257Z,3.33
2022-10-02T07:22:57.689Z,4.25
2022-10-02T07:25:55.479Z,2.85
2022-10-02T07:28:49.440Z,7.28
2022-10-02T07:31:52.853Z,4.07
2022-10-02T07:37:27.931Z,4.45
2022-10-02T07:40:15.362Z,4.97
2022-10-02T07:42:55.639Z,5.07
2022-10-02T07:45:42.831Z,3.85
2022-10-02T07:48:29.525Z,5.07
2022-10-02T07:51:42.112Z,6.20
2022-10-02T07:54:16.619Z,4.20
2022-10-02T07:56:48.196Z,5.25
2022-10-02T07:59:19.489Z,3.50
2022-10-02T08:01:50.823Z,4.10
2022-10-02T08:04:27.381Z,2.33
2022-10-02T08:07:00.989Z,3.33
2022-10-02T08:09:39.737Z,5.13
2022-10-02T08:12:34.155Z,4.35
2022-10-02T08:15:06.261Z,5.57
2022-10-02T08:17:43.691Z,4.15
2022-10-02T08:20:29.582Z,5.22
2022-10-02T08:23:25.884Z,5.25
2022-10-02T08:26:35.590Z,4.97
2022-10-02T08:29:15.405Z,4.63
2022-10-02T08:31:43.435Z,4.47
2022-10-02T08:34:21.202Z,6.43
2022-10-02T08:37:11.883Z,3.85
2022-10-02T08:40:25.358Z,4.18
2022-10-02T08:43:20.974Z,3.33
2022-10-02T08:46:29.808Z,3.80
2022-10-02T08:49:40.901Z,3.10
2022-10-02T08:52:42.261Z,3.83
2022-10-02T08:55:10.621Z,4.25
2022-10-02T08:58:04.425Z,7.20
2022-10-02T09:01:02.286Z,5.45
2022-10-02T09:03:58.234Z,6.32
2022-10-02T09:06:46.219Z,4.95
2022-10-02T09:09:27.203Z,4.25
2022-10-02T09:12:33.774Z,4.95
2022-10-02T09:15:40.608Z,3.17
2022-10-02T09:18:49.878Z,4.75
2022-10-02T09:21:32.298Z,2.70
2022-10-02T09:24:30.949Z,2.17
2022-10-02T09:27:39.182Z,3.03
2022-10-02T09:30:33.230Z,2.92
2022-10-02T09:33:16.381Z,2.47
2022-10-02T09:36:07.364Z,5.78
2022-10-02T09:38:39.246Z,2.97
2022-10-02T09:41:25.452Z,2.92
2022-10-02T09:44:11.184Z,3.92
2022-10-02T09:47:04.244Z,2.55
2022-10-02T09:52:42.989Z,8.40
2022-10-02T09:55:22.936Z,6.60
2022-10-02T09:58:09.815Z,3.63
2022-10-02T10:01:14.406Z,4.57
2022-10-02T10:03:51.359Z,4.63
2022-10-02T10:06:39.417Z,5.07
2022-10-02T10:09:11.622Z,7.40
2022-10-02T10:12:33.858Z,6.47
2022-10-02T10:15:08.847Z,5.03
2022-10-02T10:17:56.740Z,3.60
2022-10-02T10:20:44.062Z,2.67
2022-10-02T10:23:20.964Z,4.15
2022-10-02T10:25:54.501Z,4.57
2022-10-02T10:29:21.682Z,4.22
2022-10-02T10:32:08.550Z,3.20
2022-10-02T10:34:57.991Z,2.55
2022-10-02T10:38:21.803Z,5.50
2022-10-02T10:41:28.814Z,2.33
2022-10-02T10:44:33.851Z,3.53
2022-10-02T10:47:36.007Z,2.58
2022-10-02T10:50:07.108Z,2.22
2022-10-02T10:52:44.433Z,5.82
2022-10-02T10:55:19.877Z,5.78
2022-10-02T10:58:15.772Z,5.38
2022-10-02T11:00:59.910Z,3.30
2022-10-02T11:03:39.809Z,2.42
2022-10-02T11:06:23.016Z,3.90
2022-10-02T11:09:07.804Z,6.00
2022-10-02T11:11:58.347Z,1.90
2022-10-02T11:15:14.534Z,3.60
2022-10-02T11:18:20.897Z,3.55
2022-10-02T11:21:10.583Z,3.83
2022-10-02T11:23:46.994Z,4.03
2022-10-02T11:26:36.705Z,5.20
2022-10-02T11:29:41.987Z,5.03
2022-10-02T11:32:54.372Z,3.97
2022-10-02T11:35:30.250Z,3.03
2022-10-02T11:38:26.704Z,2.83
2022-10-02T11:41:15.966Z,4.68
2022-10-02T11:43:58.538Z,3.33
2022-10-02T11:46:36.626Z,3.05
2022-10-02T11:49:46.166Z,3.50
2022-10-02T11:52:55.481Z,3.95
2022-10-02T11:55:30.547Z,4.85
2022-10-02T11:58:17.070Z,3.90
2022-10-02T12:00:57.018Z,8.10
2022-10-02T12:03:46.742Z,8.68
2022-10-02T12:06:33.838Z,7.28
2022-10-02T12:09:32.332Z,4.90
2022-10-02T12:12:27.815Z,8.88
2022-10-02T12:15:01.827Z,4.85
2022-10-02T12:17:53.723Z,5.15
2022-10-02T12:21:02.645Z,4.95
2022-10-02T12:24:20.661Z,3.40
2022-10-02T12:27:17.188Z,4.15
2022-10-02T12:30:04.517Z,6.00
2022-10-02T12:32:36.714Z,3.80
2022-10-02T12:35:27.796Z,4.40
2022-10-02T12:38:02.818Z,4.07
2022-10-02T12:40:43.919Z,5.22
2022-10-02T12:43:36.081Z,5.05
2022-10-02T12:46:14.182Z,4.03
2022-10-02T12:49:13.503Z,5.15
2022-10-02T12:51:50.333Z,3.03
2022-10-02T12:54:34.676Z,4.20
2022-10-02T12:57:09.063Z,4.38
2022-10-02T13:00:12.005Z,4.32
2022-10-02T13:03:00.745Z,3.42
2022-10-02T13:06:03.756Z,5.13
2022-10-02T13:09:05.932Z,5.07
2022-10-02T13:12:03.017Z,4.95
2022-10-02T13:14:37.745Z,4.38
2022-10-02T13:17:50.306Z,6.20
2022-10-02T13:20:39.226Z,5.05
2022-10-02T13:23:45.490Z,4.10
2022-10-02T13:26:40.288Z,3.60
2022-10-02T13:29:35.864Z,3.88
2022-10-02T13:32:07.228Z,4.50
2022-10-02T13:35:01.940Z,4.55
2022-10-02T13:37:51.677Z,3.00
2022-10-02T13:40:25.883Z,1.95
2022-10-02T13:43:29.177Z,4.15
2022-10-02T13:46:16.287Z,4.65
2022-10-02T13:48:56.268Z,7.28
2022-10-02T13:51:31.766Z,5.68
2022-10-02T13:54:12.672Z,3.08
2022-10-02T13:57:01.758Z,5.07
2022-10-02T13:59:46.035Z,3.22
2022-10-02T14:02:21.355Z,4.38
2022-10-02T14:05:01.334Z,5.28
2022-10-02T14:08:09.542Z,3.72
2022-10-02T14:10:56.028Z,3.00
2022-10-02T14:13:39.034Z,4.93
2022-10-02T14:16:23.850Z,6.82
2022-10-02T14:19:29.240Z,4.88
2022-10-02T14:22:28.030Z,6.63
2022-10-02T14:25:18.202Z,3.28
2022-10-02T14:28:04.087Z,4.22
2022-10-02T14:31:20.151Z,5.82
2022-10-02T14:34:09.294Z,4.00
2022-10-02T14:36:52.836Z,3.80
2022-10-02T14:39:34.748Z,3.22
2022-10-02T14:42:32.536Z,5.80
2022-10-02T14:45:25.956Z,4.65
2022-10-02T14:48:16.311Z,6.10
2022-10-02T14:51:14.556Z,4.43
2022-10-02T14:54:02.577Z,4.25
2022-10-02T14:57:01.780Z,6.00
2022-10-02T15:00:05.646Z,5.07
2022-10-02T15:02:55.531Z,5.78
2022-10-02T15:06:01.116Z,3.80
2022-10-02T15:08:48.530Z,5.20
2022-10-02T15:11:43.519Z,4.20
2022-10-02T15:14:18.962Z,5.63
2022-10-02T15:17:15.809Z,3.55
2022-10-02T15:20:19.257Z,8.70
2022-10-02T15:22:58.732Z,4.40
2022-10-02T15:25:43.461Z,3.97
2022-10-02T15:28:36.341Z,4.63
2022-10-02T15:31:36.643Z,4.43
2022-10-02T15:34:30.320Z,7.38
2022-10-02T15:37:24.297Z,4.07
2022-10-02T15:40:20.151Z,7.03
2022-10-02T15:43:00.598Z,8.07
2022-10-02T15:45:36.764Z,6.88
2022-10-02T15:48:46.071Z,6.55
2022-10-02T15:51:51.739Z,4.50
2022-10-02T15:54:39.179Z,7.22
2022-10-02T15:57:26.739Z,10.82
2022-10-02T16:00:16.957Z,9.23
2022-10-02T16:02:57.654Z,10.18
2022-10-02T16:05:31.602Z,9.85
2022-10-02T16:08:17.971Z,7.90
2022-10-02T16:11:11.383Z,9.15
2022-10-02T16:14:00.238Z,11.30
2022-10-02T16:16:46.396Z,9.68
2022-10-02T16:19:20.149Z,8.63
2022-10-02T16:22:07.199Z,6.82
2022-10-02T16:24:59.086Z,6.18
2022-10-02T16:27:48.997Z,7.22
2022-10-02T16:30:24.072Z,8.05
2022-10-02T16:33:20.754Z,8.60
2022-10-02T16:36:19.455Z,9.98
2022-10-02T16:39:14.727Z,7.07
2022-10-02T16:41:58.789Z,8.15
2022-10-02T16:44:46.035Z,11.40
2022-10-02T16:47:33.798Z,8.48
2022-10-02T16:50:24.938Z,19.98
2022-10-02T16:53:03.050Z,42.08
2022-10-02T16:55:45.941Z,35.17
2022-10-02T16:58:36.168Z,12.88
2022-10-02T17:01:24.987Z,9.98
2022-10-02T17:04:11.735Z,12.88
2022-10-02T17:06:58.274Z,16.48
2022-10-02T17:09:47.775Z,13.20
2022-10-02T17:12:26.753Z,12.05
2022-10-02T17:14:58.261Z,17.88
2022-10-02T17:17:51.797Z,9.68
2022-10-02T17:20:32.109Z,11.55
2022-10-02T17:23:44.865Z,9.25
2022-10-02T17:26:29.610Z,9.57
2022-10-02T17:29:27.891Z,7.78
2022-10-02T17:32:01.471Z,11.07
2022-10-02T17:34:44.577Z,8.02
2022-10-02T17:37:18.212Z,10.15
2022-10-02T17:40:12.137Z,8.43
2022-10-02T17:43:00.604Z,9.68
2022-10-02T17:46:01.102Z,6.95
2022-10-02T17:49:07.193Z,8.43
2022-10-02T17:51:53.003Z,7.88
2022-10-02T17:54:48.777Z,5.70
2022-10-02T17:57:20.652Z,7.50
2022-10-02T18:00:05.860Z,9.50
2022-10-02T18:03:12.284Z,12.10
2022-10-02T18:05:57.145Z,8.98
2022-10-02T18:09:06.238Z,9.38
2022-10-02T18:12:00.211Z,9.00
2022-10-02T18:14:31.289Z,14.18
2022-10-02T18:17:19.014Z,11.65
2022-10-02T18:20:11.300Z,15.52
2022-10-02T18:23:15.522Z,13.57
2022-10-02T18:26:05.523Z,9.55
2022-10-02T18:28:48.849Z,12.20
2022-10-02T18:31:51.081Z,10.68
2022-10-02T18:34:43.541Z,8.93
2022-10-02T18:37:33.246Z,11.73
2022-10-02T18:40:22.506Z,10.77
2022-10-02T18:43:12.112Z,10.60
2022-10-02T18:46:10.994Z,10.60
2022-10-02T18:48:45.573Z,10.75
2022-10-02T18:51:21.917Z,7.35
2022-10-02T18:54:06.091Z,12.38
2022-10-02T18:56:44.138Z,7.13
2022-10-02T18:59:19.327Z,10.02
2022-10-02T19:02:26.607Z,11.43
2022-10-02T19:04:57.880Z,10.55
2022-10-02T19:07:38.699Z,9.90
2022-10-02T19:10:28.967Z,13.60
2022-10-02T19:13:03.273Z,10.15
2022-10-02T19:15:33.798Z,12.30
2022-10-02T19:18:07.304Z,10.18
2022-10-02T19:20:44.429Z,11.65
2022-10-02T19:23:31.251Z,14.20
2022-10-02T19:26:07.323Z,11.70
2022-10-02T19:28:45.709Z,10.77
2022-10-02T19:31:21.793Z,10.13
2022-10-02T19:34:03.716Z,8.38
2022-10-02T19:36:38.329Z,12.68
2022-10-02T19:39:17.802Z,13.68
2022-10-02T19:41:47.700Z,9.00
2022-10-02T19:44:34.458Z,9.90
2022-10-02T19:47:16.956Z,14.00
2022-10-02T19:49:49.474Z,12.90
2022-10-02T19:52:37.915Z,16.58
2022-10-02T19:55:28.298Z,11.80
2022-10-02T19:58:08.450Z,11.80
2022-10-02T20:00:38.727Z,10.43
2022-10-02T20:03:15.916Z,11.18
2022-10-02T20:05:46.584Z,9.93
2022-10-02T20:08:18.014Z,9.43
2022-10-02T20:10:59.181Z,10.45
2022-10-02T20:13:37.249Z,9.35
2022-10-02T20:16:28.475Z,15.25
2022-10-02T20:18:56.937Z,12.80
2022-10-02T20:21:40.439Z,10.05
2022-10-02T20:24:25.388Z,8.68
2022-10-02T20:26:56.306Z,12.70
2022-10-02T20:29:34.451Z,10.68
2022-10-02T20:32:32.503Z,11.27
2022-10-02T20:35:12.245Z,10.32
2022-10-02T20:37:43.445Z,13.20
2022-10-02T20:40:19.417Z,12.05
2022-10-02T20:43:19.839Z,12.63
2022-10-02T20:46:11.538Z,9.93
2022-10-02T20:49:09.220Z,11.27
2022-10-02T20:51:47.298Z,12.20
2022-10-02T20:54:41.893Z,12.45
2022-10-02T20:58:00.549Z,11.18
2022-10-02T21:00:40.222Z,9.45
2022-10-02T21:03:21.203Z,12.32
2022-10-02T21:06:11.110Z,9.90
2022-10-02T21:09:14.451Z,15.70
2022-10-02T21:12:04.345Z,10.03
2022-10-02T21:14:54.752Z,10.45
2022-10-02T21:18:18.339Z,12.45
2022-10-02T21:21:00.711Z,12.38
2022-10-02T21:23:56.217Z,14.35
2022-10-02T21:26:31.093Z,9.77
2022-10-02T21:29:02.156Z,10.30
2022-10-02T21:31:59.300Z,11.43
2022-10-02T21:35:07.393Z,11.60
2022-10-02T21:37:58.965Z,12.90
2022-10-02T21:40:38.774Z,10.95
2022-10-02T21:43:50.295Z,10.90
2022-10-02T21:46:44.539Z,11.48
2022-10-02T21:49:15.958Z,11.75
2022-10-02T21:52:09.051Z,9.43
2022-10-02T21:54:51.469Z,11.27
2022-10-02T21:57:47.208Z,10.43
2022-10-02T22:00:26.733Z,11.68
2022-10-02T22:03:18.127Z,8.43
2022-10-02T22:06:16.893Z,11.30
2022-10-02T22:08:51.712Z,10.48
2022-10-02T22:11:51.058Z,13.25
2022-10-02T22:14:40.678Z,9.45
2022-10-02T22:17:12.277Z,11.30
2022-10-02T22:20:08.506Z,11.27
2022-10-02T22:22:43.172Z,14.75
2022-10-02T22:25:29.167Z,17.15
2022-10-02T22:28:28.097Z,10.35
2022-10-02T22:30:56.189Z,9.82
2022-10-02T22:33:47.223Z,12.80
2022-10-02T22:36:37.688Z,14.65
2022-10-02T22:39:36.835Z,11.45
2022-10-02T22:42:20.344Z,10.75
2022-10-02T22:44:56.070Z,12.45
2022-10-02T22:47:51.269Z,10.23
2022-10-02T22:50:44.847Z,12.63
2022-10-02T22:53:24.330Z,12.63
2022-10-02T22:55:57.329Z,11.75
2022-10-02T22:58:47.322Z,9.07
2022-10-02T23:01:48.628Z,10.73
2022-10-02T23:05:00.525Z,9.13
2022-10-02T23:07:55.840Z,11.32
2022-10-02T23:10:43.757Z,13.88
2022-10-02T23:13:48.993Z,11.75
2022-10-02T23:16:32.788Z,12.90
2022-10-02T23:19:22.735Z,9.18
2022-10-02T23:21:59.476Z,10.48
2022-10-02T23:25:00.579Z,11.65
2022-10-02T23:27:52.771Z,10.25
2022-10-02T23:30:23.416Z,12.27
2022-10-02T23:33:26.257Z,8.20
2022-10-02T23:36:13.755Z,10.40
2022-10-02T23:38:56.103Z,9.98
2022-10-02T23:41:46.662Z,14.02
2022-10-02T23:44:31.665Z,9.00
2022-10-02T23:47:21.343Z,12.75
2022-10-02T23:49:53.617Z,8.68
2022-10-02T23:52:41.507Z,13.00
2022-10-02T23:55:14.154Z,10.30
2022-10-02T23:58:13.281Z,10.70
